首页
METAR-TAF:

METAR-TAF

机场 :

Woensdrecht, 荷兰

纬度: 51-27N, 经度: 004-20E, 海拔: 20米

当前天气观测

该预报发布于41分钟前的18:25 UTC
风速13节,风向西南,有时为23节阵风,在西转西南之间变化
温度 8°C
湿度 76%
气压 1018 hPa
能见度10公里或以上
散云层高于3700英尺
阴天层高于4200英尺

METAR: EHWO 181825Z AUTO 22013G23KT 170V250 9999 SCT037 OVC042 08/04 Q1018 BLU

时间: 20:06 (19:06 UTC)

预报

该预报发布于9小时和25分钟前的09:41 UTC
预报有效从18日的 10点(UTC)到 18日的 22点(UTC)
风速12节,风向西转西南,有时为22节阵风
能见度10公里或以上
散云层高于2500英尺
几率 40% :
短暂存在
从 18日的 10点(UTC)到 18日的 14点(UTC)
少量云层高于1800英尺, 积雨云.
多云层高于2000英尺
短暂存在
从 18日的 10点(UTC)到 18日的 18点(UTC)
风速15节,风向西转西南,有时为32节阵风
短暂存在
从 18日的 14点(UTC)到 18日的 22点(UTC)
少量云层高于1800英尺, 积雨云.
多云层高于2000英尺
短暂存在
从 18日的 20点(UTC)到 18日的 22点(UTC)
能見度: 4000
少量云层高于1200英尺
散云层高于1800英尺, 积雨云.
多云层高于2000英尺
小雨, 小阵雨
短暂存在
从 18日的 21点(UTC)到 18日的 22点(UTC)
风速20节,风向西转西南,有时为38节阵风
能見度: 2500
散云层高于1200英尺
多云层高于1500英尺, 积雨云.
雷暴, 雨, 小冰雹或雪球

TAF: EHWO 180941Z 1810/1822 25012G22KT 9999 SCT025 PROB40 TEMPO 1810/1814 FEW018CB BKN020 TEMPO 1810/1818 25015G32KT TEMPO 1814/1822 FEW018CB BKN020 TEMPO 1820/1822 4000 -RA -SHRA FEW012 SCT018CB BKN020 TEMPO 1821/1822 24020G38KT 2500 TSRAGS SCT012 BKN015CB

超过4000个机场的气象观测和天气预报(METAR&TAF报告)。

可查询的气象台以黄色和红色小点在地图上表示。

将鼠标移到小点上方,可查看气象台名称。

然后点击查看天气观测和预报。

如需切换地图:点击带黑十字的绿色按钮放大地图;点击带横线的绿色按钮缩小地图;或者点击绿色箭头查看邻近地区的地图。


METAR-TAF: